sensor_id;sensor_type;location;lat;lon;timestamp;pressure;altitude;pressure_sealevel;temperature;humidity
9676;BME280;4876;42.656;23.292;2024-02-15T00:01:21;94783.81;;;3.11;59.18
9676;BME280;4876;42.656;23.292;2024-02-15T00:03:47;94776.09;;;3.01;60.22
9676;BME280;4876;42.656;23.292;2024-02-15T00:06:14;94784.91;;;3.07;59.66
9676;BME280;4876;42.656;23.292;2024-02-15T00:08:40;94779.03;;;3.03;59.98
9676;BME280;4876;42.656;23.292;2024-02-15T00:11:05;94779.41;;;3.00;59.61
9676;BME280;4876;42.656;23.292;2024-02-15T00:13:31;94784.91;;;3.07;59.19
9676;BME280;4876;42.656;23.292;2024-02-15T00:15:58;94781.59;;;3.01;59.87
9676;BME280;4876;42.656;23.292;2024-02-15T00:18:24;94774.31;;;3.12;59.17
9676;BME280;4876;42.656;23.292;2024-02-15T00:20:50;94790.41;;;3.15;59.05
9676;BME280;4876;42.656;23.292;2024-02-15T00:23:15;94784.88;;;3.00;59.44
9676;BME280;4876;42.656;23.292;2024-02-15T00:25:42;94787.84;;;3.09;59.64
9676;BME280;4876;42.656;23.292;2024-02-15T00:28:10;94795.97;;;3.38;59.14
9676;BME280;4876;42.656;23.292;2024-02-15T00:30:36;94790.75;;;3.12;59.35
9676;BME280;4876;42.656;23.292;2024-02-15T00:33:02;94798.25;;;3.11;59.05
9676;BME280;4876;42.656;23.292;2024-02-15T00:35:28;94803.34;;;3.07;59.10
9676;BME280;4876;42.656;23.292;2024-02-15T00:37:54;94799.34;;;3.08;58.64
9676;BME280;4876;42.656;23.292;2024-02-15T00:40:19;94800.44;;;3.13;59.76
9676;BME280;4876;42.656;23.292;2024-02-15T00:42:46;94789.25;;;3.03;59.62
9676;BME280;4876;42.656;23.292;2024-02-15T00:45:12;94803.00;;;3.11;58.85
9676;BME280;4876;42.656;23.292;2024-02-15T00:47:37;94795.69;;;3.05;58.36
9676;BME280;4876;42.656;23.292;2024-02-15T00:50:03;94793.31;;;3.09;58.90
9676;BME280;4876;42.656;23.292;2024-02-15T00:52:29;94790.44;;;3.23;58.44
9676;BME280;4876;42.656;23.292;2024-02-15T00:54:56;94791.50;;;3.12;59.16
9676;BME280;4876;42.656;23.292;2024-02-15T00:57:22;94799.09;;;2.98;58.69
9676;BME280;4876;42.656;23.292;2024-02-15T00:59:47;94794.53;;;2.93;59.52
9676;BME280;4876;42.656;23.292;2024-02-15T01:02:13;94799.66;;;2.97;59.47
9676;BME280;4876;42.656;23.292;2024-02-15T01:04:39;94803.00;;;3.11;59.19
9676;BME280;4876;42.656;23.292;2024-02-15T01:07:05;94798.38;;;2.98;58.54
9676;BME280;4876;42.656;23.292;2024-02-15T01:09:30;94798.59;;;3.00;59.39
9676;BME280;4876;42.656;23.292;2024-02-15T01:11:56;94794.41;;;3.06;58.69
9676;BME280;4876;42.656;23.292;2024-02-15T01:14:21;94794.03;;;3.02;59.60
9676;BME280;4876;42.656;23.292;2024-02-15T01:16:47;94792.81;;;3.19;58.53
9676;BME280;4876;42.656;23.292;2024-02-15T01:19:13;94789.81;;;3.01;58.69
9676;BME280;4876;42.656;23.292;2024-02-15T01:21:38;94797.72;;;3.13;59.60
9676;BME280;4876;42.656;23.292;2024-02-15T01:24:04;94791.50;;;3.20;59.23
9676;BME280;4876;42.656;23.292;2024-02-15T01:26:32;94789.50;;;3.13;59.24
9676;BME280;4876;42.656;23.292;2024-02-15T01:28:58;94790.56;;;3.09;58.50
9676;BME280;4876;42.656;23.292;2024-02-15T01:31:23;94794.41;;;3.14;58.84
9676;BME280;4876;42.656;23.292;2024-02-15T01:33:49;94786.44;;;3.24;59.03
9676;BME280;4876;42.656;23.292;2024-02-15T01:36:15;94789.25;;;3.03;59.72
9676;BME280;4876;42.656;23.292;2024-02-15T01:38:41;94794.91;;;2.97;60.05
9676;BME280;4876;42.656;23.292;2024-02-15T01:41:07;94794.41;;;3.06;58.90
9676;BME280;4876;42.656;23.292;2024-02-15T01:43:33;94791.28;;;3.02;59.28
9676;BME280;4876;42.656;23.292;2024-02-15T01:45:59;94794.34;;;2.91;58.81
9676;BME280;4876;42.656;23.292;2024-02-15T01:48:29;94796.34;;;2.91;59.72
9676;BME280;4876;42.656;23.292;2024-02-15T01:50:56;94798.34;;;2.90;59.43
9676;BME280;4876;42.656;23.292;2024-02-15T01:53:24;94799.47;;;2.95;59.04
9676;BME280;4876;42.656;23.292;2024-02-15T01:55:53;94794.16;;;2.89;59.90
9676;BME280;4876;42.656;23.292;2024-02-15T01:58:19;94793.22;;;2.87;60.12
9676;BME280;4876;42.656;23.292;2024-02-15T02:00:45;94793.56;;;2.83;59.39
9676;BME280;4876;42.656;23.292;2024-02-15T02:03:13;94792.84;;;2.90;59.73
9676;BME280;4876;42.656;23.292;2024-02-15T02:05:40;94800.00;;;2.93;59.78
9676;BME280;4876;42.656;23.292;2024-02-15T02:08:06;94800.53;;;2.84;59.46
9676;BME280;4876;42.656;23.292;2024-02-15T02:10:37;94792.47;;;2.79;59.93
9676;BME280;4876;42.656;23.292;2024-02-15T02:13:02;94787.75;;;2.87;59.86
9676;BME280;4876;42.656;23.292;2024-02-15T02:15:28;94803.03;;;2.82;59.25
9676;BME280;4876;42.656;23.292;2024-02-15T02:17:57;94798.31;;;2.83;59.63
9676;BME280;4876;42.656;23.292;2024-02-15T02:20:25;94804.13;;;2.79;60.05
9676;BME280;4876;42.656;23.292;2024-02-15T02:22:53;94805.75;;;2.75;60.05
9676;BME280;4876;42.656;23.292;2024-02-15T02:25:20;94792.84;;;2.83;60.16
9676;BME280;4876;42.656;23.292;2024-02-15T02:27:47;94797.53;;;2.75;60.22
9676;BME280;4876;42.656;23.292;2024-02-15T02:30:14;94807.75;;;2.74;60.39
9676;BME280;4876;42.656;23.292;2024-02-15T02:32:45;94803.56;;;2.73;60.05
9676;BME280;4876;42.656;23.292;2024-02-15T02:35:11;94801.19;;;2.77;60.20
9676;BME280;4876;42.656;23.292;2024-02-15T02:37:39;94797.50;;;2.67;60.07
9676;BME280;4876;42.656;23.292;2024-02-15T02:40:08;94808.53;;;2.82;59.90
9676;BME280;4876;42.656;23.292;2024-02-15T02:42:55;94812.16;;;2.77;60.11
9676;BME280;4876;42.656;23.292;2024-02-15T02:45:27;94801.97;;;2.85;59.38
9676;BME280;4876;42.656;23.292;2024-02-15T02:47:53;94806.69;;;2.77;59.82
9676;BME280;4876;42.656;23.292;2024-02-15T02:50:20;94805.56;;;2.73;58.81
9676;BME280;4876;42.656;23.292;2024-02-15T02:52:46;94802.53;;;2.56;59.72
9676;BME280;4876;42.656;23.292;2024-02-15T02:55:14;94813.88;;;2.60;60.11
9676;BME280;4876;42.656;23.292;2024-02-15T02:57:39;94812.41;;;2.59;60.78
9676;BME280;4876;42.656;23.292;2024-02-15T03:00:10;94815.69;;;2.57;60.90
9676;BME280;4876;42.656;23.292;2024-02-15T03:02:44;94810.75;;;2.56;60.13
9676;BME280;4876;42.656;23.292;2024-02-15T03:05:10;94812.38;;;2.51;60.08
9676;BME280;4876;42.656;23.292;2024-02-15T03:07:40;94814.47;;;2.66;59.84
9676;BME280;4876;42.656;23.292;2024-02-15T03:10:06;94815.03;;;2.72;59.87
9676;BME280;4876;42.656;23.292;2024-02-15T03:12:37;94811.03;;;2.73;59.80
9676;BME280;4876;42.656;23.292;2024-02-15T03:15:04;94811.38;;;2.69;60.95
9676;BME280;4876;42.656;23.292;2024-02-15T03:17:30;94820.06;;;2.53;60.91
9676;BME280;4876;42.656;23.292;2024-02-15T03:19:58;94824.72;;;2.73;60.48
9676;BME280;4876;42.656;23.292;2024-02-15T03:22:24;94819.41;;;2.67;60.86
9676;BME280;4876;42.656;23.292;2024-02-15T03:24:51;94822.09;;;2.60;60.16
9676;BME280;4876;42.656;23.292;2024-02-15T03:27:17;94827.38;;;2.58;60.63
9676;BME280;4876;42.656;23.292;2024-02-15T03:29:43;94823.38;;;2.59;60.39
9676;BME280;4876;42.656;23.292;2024-02-15T03:32:08;94829.56;;;2.59;61.13
9676;BME280;4876;42.656;23.292;2024-02-15T03:34:35;94822.94;;;2.47;61.24
9676;BME280;4876;42.656;23.292;2024-02-15T03:37:00;94827.28;;;2.42;61.18
9676;BME280;4876;42.656;23.292;2024-02-15T03:39:29;94828.97;;;2.25;61.54
9676;BME280;4876;42.656;23.292;2024-02-15T03:41:55;94830.09;;;2.29;61.46
9676;BME280;4876;42.656;23.292;2024-02-15T03:44:21;94824.13;;;2.10;62.17
9676;BME280;4876;42.656;23.292;2024-02-15T03:46:46;94835.56;;;2.29;61.58
9676;BME280;4876;42.656;23.292;2024-02-15T03:49:17;94829.03;;;2.32;61.83
9676;BME280;4876;42.656;23.292;2024-02-15T03:51:43;94825.31;;;2.51;61.33
9676;BME280;4876;42.656;23.292;2024-02-15T03:54:10;94834.16;;;2.36;62.03
9676;BME280;4876;42.656;23.292;2024-02-15T03:56:36;94827.63;;;2.39;62.40
9676;BME280;4876;42.656;23.292;2024-02-15T03:59:02;94824.28;;;2.33;62.29
9676;BME280;4876;42.656;23.292;2024-02-15T04:01:30;94829.16;;;2.27;61.63
9676;BME280;4876;42.656;23.292;2024-02-15T04:03:59;94820.63;;;2.30;61.65
9676;BME280;4876;42.656;23.292;2024-02-15T04:06:25;94824.69;;;2.37;61.90
9676;BME280;4876;42.656;23.292;2024-02-15T04:08:52;94825.53;;;2.53;60.82
9676;BME280;4876;42.656;23.292;2024-02-15T04:11:18;94834.16;;;2.36;61.48
9676;BME280;4876;42.656;23.292;2024-02-15T04:13:45;94828.69;;;2.36;61.07
9676;BME280;4876;42.656;23.292;2024-02-15T04:16:10;94831.72;;;2.53;61.19
9676;BME280;4876;42.656;23.292;2024-02-15T04:18:36;94826.16;;;2.38;60.92
9676;BME280;4876;42.656;23.292;2024-02-15T04:21:03;94831.53;;;2.23;61.26
9676;BME280;4876;42.656;23.292;2024-02-15T04:23:31;94840.19;;;2.14;61.95
9676;BME280;4876;42.656;23.292;2024-02-15T04:25:57;94834.44;;;2.25;61.41
9676;BME280;4876;42.656;23.292;2024-02-15T04:28:25;94835.97;;;2.33;61.91
9676;BME280;4876;42.656;23.292;2024-02-15T04:30:50;94839.13;;;2.17;61.10
9676;BME280;4876;42.656;23.292;2024-02-15T04:33:16;94847.06;;;2.28;62.12
9676;BME280;4876;42.656;23.292;2024-02-15T04:35:42;94846.88;;;2.26;61.64
9676;BME280;4876;42.656;23.292;2024-02-15T04:38:08;94843.22;;;2.23;61.74
9676;BME280;4876;42.656;23.292;2024-02-15T04:40:34;94850.75;;;2.10;62.61
9676;BME280;4876;42.656;23.292;2024-02-15T04:43:00;94853.00;;;2.19;61.86
9676;BME280;4876;42.656;23.292;2024-02-15T04:45:29;94851.13;;;2.14;62.02
9676;BME280;4876;42.656;23.292;2024-02-15T04:47:56;94856.41;;;2.12;62.37
9676;BME280;4876;42.656;23.292;2024-02-15T04:50:22;94844.47;;;2.02;61.90
9676;BME280;4876;42.656;23.292;2024-02-15T04:52:48;94858.09;;;2.15;61.99
9676;BME280;4876;42.656;23.292;2024-02-15T04:55:15;94849.75;;;2.00;61.72
9676;BME280;4876;42.656;23.292;2024-02-15T04:57:42;94860.91;;;2.02;62.43
9676;BME280;4876;42.656;23.292;2024-02-15T05:00:08;94859.63;;;2.03;62.23
9676;BME280;4876;42.656;23.292;2024-02-15T05:02:35;94866.38;;;2.02;62.38
9676;BME280;4876;42.656;23.292;2024-02-15T05:05:06;94874.69;;;1.96;61.72
9676;BME280;4876;42.656;23.292;2024-02-15T05:07:34;94871.16;;;2.09;61.69
9676;BME280;4876;42.656;23.292;2024-02-15T05:10:01;94879.63;;;1.98;62.44
9676;BME280;4876;42.656;23.292;2024-02-15T05:12:31;94881.66;;;1.97;62.11
9676;BME280;4876;42.656;23.292;2024-02-15T05:14:59;94877.31;;;2.02;62.10
9676;BME280;4876;42.656;23.292;2024-02-15T05:17:24;94881.09;;;1.99;61.81
9676;BME280;4876;42.656;23.292;2024-02-15T05:19:50;94875.44;;;1.97;62.67
9676;BME280;4876;42.656;23.292;2024-02-15T05:22:15;94882.47;;;2.05;62.45
9676;BME280;4876;42.656;23.292;2024-02-15T05:24:41;94883.25;;;2.13;61.45
9676;BME280;4876;42.656;23.292;2024-02-15T05:27:06;94865.31;;;2.05;61.63
9676;BME280;4876;42.656;23.292;2024-02-15T05:29:32;94885.03;;;2.11;61.67
9676;BME280;4876;42.656;23.292;2024-02-15T05:32:01;94881.03;;;2.12;61.74
9676;BME280;4876;42.656;23.292;2024-02-15T05:34:27;94879.84;;;2.00;61.64
9676;BME280;4876;42.656;23.292;2024-02-15T05:36:55;94889.38;;;2.06;61.72
9676;BME280;4876;42.656;23.292;2024-02-15T05:39:21;94891.78;;;2.10;61.76
9676;BME280;4876;42.656;23.292;2024-02-15T05:41:48;94889.19;;;2.04;62.00
9676;BME280;4876;42.656;23.292;2024-02-15T05:44:14;94885.03;;;2.11;61.73
9676;BME280;4876;42.656;23.292;2024-02-15T05:46:46;94895.91;;;2.03;62.00
9676;BME280;4876;42.656;23.292;2024-02-15T05:49:12;94901.59;;;2.05;61.86
9676;BME280;4876;42.656;23.292;2024-02-15T05:51:43;94903.19;;;2.01;62.14
9676;BME280;4876;42.656;23.292;2024-02-15T05:54:08;94912.66;;;2.00;62.16
9676;BME280;4876;42.656;23.292;2024-02-15T05:56:34;94906.84;;;2.03;61.63
9676;BME280;4876;42.656;23.292;2024-02-15T05:58:59;94915.53;;;2.15;61.28
9676;BME280;4876;42.656;23.292;2024-02-15T06:01:27;94915.75;;;2.17;61.36
9676;BME280;4876;42.656;23.292;2024-02-15T06:03:54;94911.06;;;2.04;61.73
9676;BME280;4876;42.656;23.292;2024-02-15T06:06:21;94917.22;;;1.97;62.39
9676;BME280;4876;42.656;23.292;2024-02-15T06:08:47;94909.34;;;2.14;62.56
9676;BME280;4876;42.656;23.292;2024-02-15T06:11:19;94910.31;;;2.04;61.77
9676;BME280;4876;42.656;23.292;2024-02-15T06:13:46;94905.78;;;2.06;62.40
9676;BME280;4876;42.656;23.292;2024-02-15T06:16:30;94921.56;;;2.13;62.06
9676;BME280;4876;42.656;23.292;2024-02-15T06:18:55;94920.53;;;2.03;61.73
9676;BME280;4876;42.656;23.292;2024-02-15T06:21:21;94919.75;;;2.16;61.65
9676;BME280;4876;42.656;23.292;2024-02-15T06:23:46;94921.94;;;2.17;61.38
9676;BME280;4876;42.656;23.292;2024-02-15T06:26:13;94930.78;;;2.23;61.04
9676;BME280;4876;42.656;23.292;2024-02-15T06:28:39;94935.38;;;2.28;60.68
9676;BME280;4876;42.656;23.292;2024-02-15T06:31:23;94936.63;;;2.27;60.75
9676;BME280;4876;42.656;23.292;2024-02-15T06:34:07;94935.25;;;2.34;60.42
9676;BME280;4876;42.656;23.292;2024-02-15T06:36:55;94947.00;;;2.42;60.59
9676;BME280;4876;42.656;23.292;2024-02-15T06:39:39;94934.56;;;2.41;60.92
9676;BME280;4876;42.656;23.292;2024-02-15T06:42:14;94943.13;;;2.58;60.02
9676;BME280;4876;42.656;23.292;2024-02-15T06:44:47;94950.78;;;2.60;60.10
9676;BME280;4876;42.656;23.292;2024-02-15T06:47:13;94953.72;;;2.62;60.11
9676;BME280;4876;42.656;23.292;2024-02-15T06:49:42;94950.84;;;2.67;59.83
9676;BME280;4876;42.656;23.292;2024-02-15T06:52:11;94941.16;;;2.66;59.54
9676;BME280;4876;42.656;23.292;2024-02-15T06:54:40;94950.16;;;2.74;59.32
9676;BME280;4876;42.656;23.292;2024-02-15T06:57:06;94952.81;;;2.87;59.04
9676;BME280;4876;42.656;23.292;2024-02-15T06:59:33;94954.28;;;2.88;59.13
9676;BME280;4876;42.656;23.292;2024-02-15T07:01:59;94957.19;;;2.83;59.48
9676;BME280;4876;42.656;23.292;2024-02-15T07:04:25;94958.22;;;3.00;59.26
9676;BME280;4876;42.656;23.292;2024-02-15T07:06:51;94957.03;;;3.17;58.97
9676;BME280;4876;42.656;23.292;2024-02-15T07:09:22;94951.19;;;3.13;57.85
9676;BME280;4876;42.656;23.292;2024-02-15T07:11:50;94953.81;;;3.26;58.20
9676;BME280;4876;42.656;23.292;2024-02-15T07:14:16;94950.88;;;2.95;58.74
9676;BME280;4876;42.656;23.292;2024-02-15T07:16:46;94946.97;;;3.12;57.91
9676;BME280;4876;42.656;23.292;2024-02-15T07:19:12;94950.78;;;3.08;57.47
9676;BME280;4876;42.656;23.292;2024-02-15T07:21:38;94943.03;;;3.28;57.61
9676;BME280;4876;42.656;23.292;2024-02-15T07:24:04;94941.25;;;3.38;56.66
9676;BME280;4876;42.656;23.292;2024-02-15T07:26:30;94935.06;;;3.09;58.05
9676;BME280;4876;42.656;23.292;2024-02-15T07:28:55;94938.44;;;3.23;56.54
9676;BME280;4876;42.656;23.292;2024-02-15T07:31:23;94932.47;;;3.32;57.18
9676;BME280;4876;42.656;23.292;2024-02-15T07:33:50;94940.72;;;3.39;56.60
9676;BME280;4876;42.656;23.292;2024-02-15T07:36:20;94932.72;;;3.49;57.26
9676;BME280;4876;42.656;23.292;2024-02-15T07:38:49;94934.75;;;3.56;55.83
9676;BME280;4876;42.656;23.292;2024-02-15T07:41:17;94923.25;;;3.57;55.82
9676;BME280;4876;42.656;23.292;2024-02-15T07:43:45;94926.53;;;3.56;56.24
9676;BME280;4876;42.656;23.292;2024-02-15T07:46:15;94929.13;;;3.61;55.83
9676;BME280;4876;42.656;23.292;2024-02-15T07:48:42;94925.31;;;3.72;55.46
9676;BME280;4876;42.656;23.292;2024-02-15T07:51:12;94922.56;;;3.72;55.35
9676;BME280;4876;42.656;23.292;2024-02-15T07:53:39;94923.88;;;3.71;55.01
9676;BME280;4876;42.656;23.292;2024-02-15T07:56:05;94927.56;;;3.89;54.73
9676;BME280;4876;42.656;23.292;2024-02-15T07:58:31;94930.53;;;3.98;54.92
9676;BME280;4876;42.656;23.292;2024-02-15T08:00:57;94938.91;;;3.85;55.35
9676;BME280;4876;42.656;23.292;2024-02-15T08:03:23;94928.72;;;3.50;56.39
9676;BME280;4876;42.656;23.292;2024-02-15T08:05:48;94937.53;;;3.63;55.56
9676;BME280;4876;42.656;23.292;2024-02-15T08:08:14;94928.63;;;3.70;55.87
9676;BME280;4876;42.656;23.292;2024-02-15T08:10:39;94923.72;;;3.77;55.40
9676;BME280;4876;42.656;23.292;2024-02-15T08:13:05;94920.44;;;3.93;55.42
9676;BME280;4876;42.656;23.292;2024-02-15T08:15:30;94923.94;;;4.01;54.70
9676;BME280;4876;42.656;23.292;2024-02-15T08:17:56;94917.19;;;3.95;55.64
9676;BME280;4876;42.656;23.292;2024-02-15T08:20:21;94919.94;;;4.02;55.70
9676;BME280;4876;42.656;23.292;2024-02-15T08:22:47;94921.94;;;3.94;55.88
9676;BME280;4876;42.656;23.292;2024-02-15T08:25:13;94923.81;;;4.29;55.29
9676;BME280;4876;42.656;23.292;2024-02-15T08:27:43;94924.13;;;4.03;54.69
9676;BME280;4876;42.656;23.292;2024-02-15T08:30:13;94924.34;;;4.05;55.60
9676;BME280;4876;42.656;23.292;2024-02-15T08:32:39;94913.91;;;4.11;55.08
9676;BME280;4876;42.656;23.292;2024-02-15T08:35:08;94903.72;;;4.35;54.26
9676;BME280;4876;42.656;23.292;2024-02-15T08:37:36;94920.91;;;4.43;54.68
9676;BME280;4876;42.656;23.292;2024-02-15T08:40:08;94920.53;;;4.54;54.38
9676;BME280;4876;42.656;23.292;2024-02-15T08:42:40;94915.97;;;4.49;54.26
9676;BME280;4876;42.656;23.292;2024-02-15T08:45:07;94911.56;;;4.76;53.80
9676;BME280;4876;42.656;23.292;2024-02-15T08:47:39;94911.75;;;4.63;53.80
9676;BME280;4876;42.656;23.292;2024-02-15T08:50:07;94917.78;;;4.39;54.88
9676;BME280;4876;42.656;23.292;2024-02-15T08:52:34;94910.81;;;4.30;55.72
9676;BME280;4876;42.656;23.292;2024-02-15T08:55:08;94916.88;;;4.28;55.05
9676;BME280;4876;42.656;23.292;2024-02-15T08:57:35;94915.41;;;4.27;55.84
9676;BME280;4876;42.656;23.292;2024-02-15T09:00:03;94913.56;;;4.38;55.63
9676;BME280;4876;42.656;23.292;2024-02-15T09:02:39;94914.47;;;4.32;56.40
9676;BME280;4876;42.656;23.292;2024-02-15T09:05:06;94912.31;;;4.39;55.85
9676;BME280;4876;42.656;23.292;2024-02-15T09:07:31;94909.38;;;4.44;55.13
9676;BME280;4876;42.656;23.292;2024-02-15T09:09:57;94914.13;;;4.59;54.67
9676;BME280;4876;42.656;23.292;2024-02-15T09:12:22;94914.31;;;4.46;54.16
9676;BME280;4876;42.656;23.292;2024-02-15T09:14:48;94906.81;;;4.39;54.03
9676;BME280;4876;42.656;23.292;2024-02-15T09:17:13;94900.59;;;4.61;55.19
9676;BME280;4876;42.656;23.292;2024-02-15T09:19:39;94898.56;;;4.69;53.29
9676;BME280;4876;42.656;23.292;2024-02-15T09:22:05;94897.09;;;4.68;53.02
9676;BME280;4876;42.656;23.292;2024-02-15T09:24:32;94899.31;;;4.62;54.27
9676;BME280;4876;42.656;23.292;2024-02-15T09:27:02;94897.28;;;4.77;54.67
9676;BME280;4876;42.656;23.292;2024-02-15T09:29:31;94904.41;;;4.95;53.51
9676;BME280;4876;42.656;23.292;2024-02-15T09:31:58;94894.78;;;5.27;52.11
9676;BME280;4876;42.656;23.292;2024-02-15T09:34:24;94897.56;;;5.27;52.68
9676;BME280;4876;42.656;23.292;2024-02-15T09:36:50;94881.56;;;5.40;51.82
9676;BME280;4876;42.656;23.292;2024-02-15T09:39:16;94886.25;;;5.63;51.33
9676;BME280;4876;42.656;23.292;2024-02-15T09:41:42;94890.03;;;5.75;52.83
9676;BME280;4876;42.656;23.292;2024-02-15T09:44:08;94895.94;;;5.24;53.89
9676;BME280;4876;42.656;23.292;2024-02-15T09:46:42;94875.00;;;5.28;54.68
9676;BME280;4876;42.656;23.292;2024-02-15T09:49:11;94875.88;;;5.38;51.99
9676;BME280;4876;42.656;23.292;2024-02-15T09:51:37;94888.47;;;5.56;51.43
9676;BME280;4876;42.656;23.292;2024-02-15T09:54:04;94885.63;;;5.79;51.79
9676;BME280;4876;42.656;23.292;2024-02-15T09:56:31;94879.88;;;5.52;52.89
9676;BME280;4876;42.656;23.292;2024-02-15T09:58:59;94875.66;;;5.51;52.80
9676;BME280;4876;42.656;23.292;2024-02-15T10:01:27;94882.44;;;5.58;53.77
9676;BME280;4876;42.656;23.292;2024-02-15T10:03:56;94878.03;;;5.55;52.59
9676;BME280;4876;42.656;23.292;2024-02-15T10:06:24;94874.22;;;5.83;52.55
9676;BME280;4876;42.656;23.292;2024-02-15T10:08:50;94870.03;;;6.14;51.77
9676;BME280;4876;42.656;23.292;2024-02-15T10:11:16;94857.78;;;6.07;51.07
9676;BME280;4876;42.656;23.292;2024-02-15T10:13:41;94858.25;;;5.89;51.53
9676;BME280;4876;42.656;23.292;2024-02-15T10:16:16;94863.78;;;5.81;51.70
9676;BME280;4876;42.656;23.292;2024-02-15T10:18:42;94860.34;;;5.73;51.92
9676;BME280;4876;42.656;23.292;2024-02-15T10:21:08;94853.69;;;5.44;52.38
9676;BME280;4876;42.656;23.292;2024-02-15T10:23:33;94857.09;;;5.60;53.22
9676;BME280;4876;42.656;23.292;2024-02-15T10:25:59;94845.16;;;5.65;52.94
9676;BME280;4876;42.656;23.292;2024-02-15T10:28:26;94840.66;;;5.84;52.89
9676;BME280;4876;42.656;23.292;2024-02-15T10:30:54;94842.72;;;6.08;51.81
9676;BME280;4876;42.656;23.292;2024-02-15T10:33:26;94842.22;;;6.27;51.02
9676;BME280;4876;42.656;23.292;2024-02-15T10:36:08;94830.63;;;6.53;49.81
9676;BME280;4876;42.656;23.292;2024-02-15T10:38:34;94834.97;;;6.14;51.65
9676;BME280;4876;42.656;23.292;2024-02-15T10:41:05;94836.19;;;5.96;51.92
9676;BME280;4876;42.656;23.292;2024-02-15T10:43:35;94837.56;;;6.12;52.51
9676;BME280;4876;42.656;23.292;2024-02-15T10:46:03;94828.28;;;6.00;51.72
9676;BME280;4876;42.656;23.292;2024-02-15T10:48:29;94835.25;;;6.26;51.82
9676;BME280;4876;42.656;23.292;2024-02-15T10:50:59;94826.25;;;6.50;50.80
9676;BME280;4876;42.656;23.292;2024-02-15T10:58:26;94819.91;;;6.15;51.35
9676;BME280;4876;42.656;23.292;2024-02-15T11:00:59;94819.19;;;6.15;52.44
9676;BME280;4876;42.656;23.292;2024-02-15T11:03:35;94813.22;;;6.26;51.76
9676;BME280;4876;42.656;23.292;2024-02-15T11:06:07;94816.13;;;6.28;51.82
9676;BME280;4876;42.656;23.292;2024-02-15T11:08:35;94817.59;;;6.29;51.53
9676;BME280;4876;42.656;23.292;2024-02-15T11:11:02;94819.06;;;6.30;50.75
9676;BME280;4876;42.656;23.292;2024-02-15T11:13:30;94811.81;;;6.59;50.81
9676;BME280;4876;42.656;23.292;2024-02-15T11:15:55;94804.06;;;6.65;50.93
9676;BME280;4876;42.656;23.292;2024-02-15T11:18:43;94801.06;;;6.71;49.32
9676;BME280;4876;42.656;23.292;2024-02-15T11:21:15;94806.59;;;6.71;50.27
9676;BME280;4876;42.656;23.292;2024-02-15T11:23:41;94804.25;;;6.85;50.30
9676;BME280;4876;42.656;23.292;2024-02-15T11:26:47;94803.47;;;6.50;49.64
9676;BME280;4876;42.656;23.292;2024-02-15T11:35:14;94798.72;;;7.02;49.79
9676;BME280;4876;42.656;23.292;2024-02-15T11:40:26;94798.22;;;7.30;47.38
9676;BME280;4876;42.656;23.292;2024-02-15T11:42:57;94798.06;;;7.28;47.70
9676;BME280;4876;42.656;23.292;2024-02-15T11:45:25;94799.78;;;6.89;48.39
9676;BME280;4876;42.656;23.292;2024-02-15T11:47:52;94791.34;;;7.04;49.08
9676;BME280;4876;42.656;23.292;2024-02-15T11:50:20;94790.78;;;7.06;48.05
9676;BME280;4876;42.656;23.292;2024-02-15T11:52:51;94799.63;;;7.04;49.10
9676;BME280;4876;42.656;23.292;2024-02-15T11:55:22;94798.88;;;7.04;48.49
9676;BME280;4876;42.656;23.292;2024-02-15T11:57:58;94791.25;;;7.12;48.83
9676;BME280;4876;42.656;23.292;2024-02-15T12:00:31;94787.00;;;7.45;47.25
9676;BME280;4876;42.656;23.292;2024-02-15T12:03:17;94787.84;;;7.65;46.73
9676;BME280;4876;42.656;23.292;2024-02-15T12:06:01;94787.63;;;7.53;46.99
9676;BME280;4876;42.656;23.292;2024-02-15T12:08:47;94788.78;;;7.77;46.58
9676;BME280;4876;42.656;23.292;2024-02-15T12:11:31;94767.84;;;7.47;47.81
9676;BME280;4876;42.656;23.292;2024-02-15T12:17:37;94773.66;;;7.78;47.09
9676;BME280;4876;42.656;23.292;2024-02-15T12:20:22;94772.53;;;7.81;46.87
9676;BME280;4876;42.656;23.292;2024-02-15T12:22:51;94771.34;;;7.30;48.36
9676;BME280;4876;42.656;23.292;2024-02-15T12:25:18;94775.06;;;7.43;47.64
9676;BME280;4876;42.656;23.292;2024-02-15T12:27:46;94768.66;;;7.67;46.98
9676;BME280;4876;42.656;23.292;2024-02-15T12:30:18;94761.78;;;7.85;46.94
9676;BME280;4876;42.656;23.292;2024-02-15T12:32:50;94768.59;;;7.74;46.78
9676;BME280;4876;42.656;23.292;2024-02-15T12:35:17;94767.88;;;7.83;46.11
9676;BME280;4876;42.656;23.292;2024-02-15T12:38:01;94765.13;;;8.20;46.07
9676;BME280;4876;42.656;23.292;2024-02-15T12:40:34;94762.88;;;8.09;46.28
9676;BME280;4876;42.656;23.292;2024-02-15T12:43:02;94765.75;;;8.28;45.41
9676;BME280;4876;42.656;23.292;2024-02-15T12:45:31;94761.63;;;8.19;47.01
9676;BME280;4876;42.656;23.292;2024-02-15T12:47:57;94760.06;;;8.26;45.85
9676;BME280;4876;42.656;23.292;2024-02-15T12:50:27;94755.91;;;8.44;45.56
9676;BME280;4876;42.656;23.292;2024-02-15T12:52:53;94758.06;;;8.36;45.92
9676;BME280;4876;42.656;23.292;2024-02-15T12:55:22;94757.47;;;8.28;45.98
9676;BME280;4876;42.656;23.292;2024-02-15T12:57:53;94757.34;;;8.09;46.56
9676;BME280;4876;42.656;23.292;2024-02-15T13:00:27;94758.75;;;7.90;47.51
9676;BME280;4876;42.656;23.292;2024-02-15T13:02:57;94747.53;;;8.25;46.33
9676;BME280;4876;42.656;23.292;2024-02-15T13:05:25;94756.72;;;8.27;47.05
9676;BME280;4876;42.656;23.292;2024-02-15T13:07:52;94749.91;;;8.28;46.09
9676;BME280;4876;42.656;23.292;2024-02-15T13:10:21;94752.53;;;8.36;46.13
9676;BME280;4876;42.656;23.292;2024-02-15T13:12:47;94748.81;;;8.14;46.13
9676;BME280;4876;42.656;23.292;2024-02-15T13:15:14;94757.28;;;8.26;46.83
9676;BME280;4876;42.656;23.292;2024-02-15T13:17:46;94752.50;;;8.26;47.11
9676;BME280;4876;42.656;23.292;2024-02-15T13:20:14;94749.03;;;8.35;45.84
9676;BME280;4876;42.656;23.292;2024-02-15T13:22:42;94754.28;;;8.41;46.40
9676;BME280;4876;42.656;23.292;2024-02-15T13:25:09;94748.94;;;8.52;46.75
9676;BME280;4876;42.656;23.292;2024-02-15T13:27:35;94742.97;;;8.56;45.90
9676;BME280;4876;42.656;23.292;2024-02-15T13:30:04;94750.13;;;8.69;45.64
9676;BME280;4876;42.656;23.292;2024-02-15T13:32:37;94744.75;;;8.61;46.61
9676;BME280;4876;42.656;23.292;2024-02-15T13:35:05;94748.81;;;8.60;45.32
9676;BME280;4876;42.656;23.292;2024-02-15T13:37:57;94744.44;;;8.57;45.76
9676;BME280;4876;42.656;23.292;2024-02-15T13:40:27;94751.13;;;8.54;45.50
9676;BME280;4876;42.656;23.292;2024-02-15T13:42:58;94738.94;;;8.76;45.28
9676;BME280;4876;42.656;23.292;2024-02-15T13:45:28;94736.44;;;8.80;45.08